Time;durP1;ratioP1;P1;durP2;ratioP2;P2;SDS_P1;SDS_P2;PMS_P1;PMS_P2;Temp;Humidity;BMP_temperature;BMP_pressure;BME280_temperature;BME280_humidity;BME280_pressure;Samples;Min_cycle;Max_cycle;Signal;HPM_P1;HPM_P2
2023/01/27 00:00:22;;;;;;;13.40;6.10;;;;;;;8.81;87.18;102991.59;5019515;28;20057;-84
2023/01/27 00:02:51;;;;;;;14.40;5.53;;;;;;;8.75;88.17;102994.66;5015426;28;20041;-86
2023/01/27 00:05:19;;;;;;;9.35;4.93;;;;;;;8.78;88.47;102988.81;5024465;28;20042;-87
2023/01/27 00:07:48;;;;;;;9.27;5.07;;;;;;;8.81;89.25;102978.69;5011459;28;20097;-84
2023/01/27 00:10:21;;;;;;;13.68;6.28;;;;;;;8.83;88.66;102969.38;5015005;28;20061;-83
2023/01/27 00:15:35;;;;;;;12.90;5.60;;;;;;;8.74;88.37;102979.94;5015160;28;20165;-85
2023/01/27 00:18:03;;;;;;;10.60;5.65;;;;;;;8.72;87.79;102975.44;5012701;28;20096;-85
2023/01/27 00:26:07;;;;;;;11.32;5.72;;;;;;;8.70;89.67;102969.28;5010057;28;20184;-77
2023/01/27 00:28:36;;;;;;;10.40;5.65;;;;;;;8.68;88.99;102965.69;5015649;28;20054;-88
2023/01/27 00:31:06;;;;;;;12.75;5.53;;;;;;;8.67;89.72;102964.78;5003009;28;20095;-82
2023/01/27 00:33:34;;;;;;;13.80;5.68;;;;;;;8.67;90.16;102956.16;4961214;28;20097;-79
2023/01/27 00:36:04;;;;;;;16.63;6.13;;;;;;;8.66;90.17;102954.34;5011838;28;20558;-76
2023/01/27 00:38:39;;;;;;;11.45;5.43;;;;;;;8.64;91.01;102953.38;4998417;28;20073;-78
2023/01/27 00:41:18;;;;;;;9.00;5.57;;;;;;;8.56;90.61;102945.94;5008101;28;20271;-77
2023/01/27 00:43:47;;;;;;;12.10;5.43;;;;;;;8.50;89.98;102947.19;5012295;28;20052;-76
2023/01/27 00:46:16;;;;;;;13.25;6.28;;;;;;;8.44;91.12;102950.22;5015703;28;20567;-76
2023/01/27 00:48:45;;;;;;;12.02;6.07;;;;;;;8.33;92.54;102938.16;5011828;28;20057;-78
2023/01/27 00:51:15;;;;;;;12.52;5.72;;;;;;;8.34;91.62;102948.59;5010886;28;20133;-73
2023/01/27 00:53:44;;;;;;;10.48;5.32;;;;;;;8.31;93.30;102950.94;5010191;28;20038;-74
2023/01/27 00:56:20;;;;;;;12.73;6.30;;;;;;;8.32;92.62;102944.13;5010335;28;20519;-75
2023/01/27 00:58:49;;;;;;;9.50;5.43;;;;;;;8.29;93.08;102941.31;5011194;28;20045;-73
2023/01/27 01:01:18;;;;;;;11.57;6.70;;;;;;;8.29;94.02;102939.66;5011723;28;20068;-75
2023/01/27 01:03:46;;;;;;;10.63;5.50;;;;;;;8.28;93.87;102945.56;5010523;28;20042;-78
2023/01/27 01:06:17;;;;;;;10.65;5.93;;;;;;;8.26;93.93;102936.81;5011602;28;20108;-76
2023/01/27 01:08:47;;;;;;;13.52;6.95;;;;;;;8.24;94.19;102937.50;5011255;28;20046;-76
2023/01/27 01:11:18;;;;;;;11.57;5.95;;;;;;;8.24;94.62;102937.50;5002579;28;20046;-76
2023/01/27 01:13:47;;;;;;;10.88;5.82;;;;;;;8.26;94.66;102929.09;5002719;28;20049;-76
2023/01/27 01:16:18;;;;;;;12.63;6.43;;;;;;;8.27;94.79;102937.72;5002311;28;20500;-77
2023/01/27 01:18:46;;;;;;;12.70;6.15;;;;;;;8.29;94.46;102936.13;5007113;28;20464;-76
2023/01/27 01:21:15;;;;;;;9.98;5.90;;;;;;;8.33;94.51;102930.44;5010679;28;20054;-75
2023/01/27 01:23:45;;;;;;;10.05;5.47;;;;;;;8.34;94.57;102929.66;5009951;28;20069;-76
2023/01/27 01:26:17;;;;;;;10.15;5.80;;;;;;;8.29;96.67;102913.84;5006944;28;20120;-76
2023/01/27 01:28:47;;;;;;;11.65;5.38;;;;;;;8.24;96.68;102916.88;5005719;28;20049;-75
2023/01/27 01:31:18;;;;;;;11.95;5.43;;;;;;;8.20;97.48;102931.22;5008968;28;20050;-77
2023/01/27 01:33:47;;;;;;;10.40;4.90;;;;;;;8.23;97.76;102925.41;5006618;28;20492;-79
2023/01/27 01:36:18;;;;;;;24.08;9.20;;;;;;;8.17;97.18;102924.13;5011222;28;20622;-76
2023/01/27 01:38:46;;;;;;;20.20;10.10;;;;;;;8.29;96.79;102928.41;4999082;28;20109;-77
2023/01/27 01:41:18;;;;;;;18.67;10.18;;;;;;;8.31;94.99;102924.25;4996153;28;20405;-75
2023/01/27 01:43:47;;;;;;;16.93;7.63;;;;;;;8.22;95.35;102908.09;5010129;28;20053;-76
2023/01/27 01:46:16;;;;;;;20.92;10.20;;;;;;;8.16;95.40;102912.03;5008179;28;20106;-73
2023/01/27 01:48:49;;;;;;;19.67;10.77;;;;;;;8.12;96.84;102903.97;5008585;28;20064;-77
2023/01/27 01:51:18;;;;;;;;;;;;;;;8.09;96.59;102901.16;5002763;28;20069;-76
2023/01/27 01:53:53;;;;;;;20.83;10.32;;;;;;;8.05;96.99;102892.31;5002399;28;19921;-77
2023/01/27 01:56:27;;;;;;;17.85;8.73;;;;;;;8.06;97.63;102883.75;5010002;28;20495;-76
2023/01/27 01:58:59;;;;;;;17.83;8.57;;;;;;;8.06;98.55;102881.19;5010308;28;20046;-77
2023/01/27 02:01:27;;;;;;;19.38;8.35;;;;;;;8.05;98.99;102884.56;5004322;28;20053;-75
2023/01/27 02:04:03;;;;;;;18.05;8.95;;;;;;;8.06;99.69;102895.75;5008470;28;20058;-76
2023/01/27 02:06:39;;;;;;;16.60;8.05;;;;;;;8.08;99.76;102889.94;5003678;28;20492;-75
2023/01/27 02:09:08;;;;;;;15.48;7.90;;;;;;;8.13;99.56;102891.19;5005726;28;20128;-82
2023/01/27 02:11:38;;;;;;;15.95;8.30;;;;;;;8.15;99.18;102892.22;5010822;28;20054;-76
2023/01/27 02:14:07;;;;;;;14.77;8.05;;;;;;;8.13;97.86;102888.63;5008044;28;20805;-77
2023/01/27 02:16:36;;;;;;;11.82;6.55;;;;;;;8.08;97.61;102889.94;5007766;28;20058;-77
2023/01/27 02:19:06;;;;;;;13.18;6.85;;;;;;;8.03;96.91;102877.50;5010151;28;20121;-78
2023/01/27 02:21:35;;;;;;;12.13;7.10;;;;;;;7.99;97.89;102881.53;5010246;28;20523;-78
2023/01/27 02:24:11;;;;;;;12.50;6.22;;;;;;;8.02;98.30;102868.88;5004361;28;20100;-79
2023/01/27 02:26:44;;;;;;;17.80;7.15;;;;;;;8.02;98.25;102853.41;5007986;28;20160;-83
2023/01/27 02:29:15;;;;;;;17.98;7.28;;;;;;;8.02;98.43;102862.81;5010575;28;20056;-79
2023/01/27 02:31:43;;;;;;;13.95;6.55;;;;;;;8.02;97.74;102853.41;5011927;28;20050;-78
2023/01/27 02:34:15;;;;;;;14.05;7.35;;;;;;;8.04;98.85;102853.50;5008484;28;20076;-78
2023/01/27 02:36:48;;;;;;;19.40;7.47;;;;;;;8.04;98.11;102848.34;5015741;28;20498;-78
2023/01/27 02:39:20;;;;;;;13.00;6.70;;;;;;;8.08;98.28;102853.84;5002319;28;20050;-77
2023/01/27 02:41:53;;;;;;;11.98;6.32;;;;;;;8.09;98.99;102844.44;5011138;28;20054;-79
2023/01/27 02:44:22;;;;;;;10.48;5.70;;;;;;;8.12;98.01;102855.88;5009396;28;20038;-87
2023/01/27 02:46:50;;;;;;;12.07;6.30;;;;;;;8.13;97.61;102847.34;5005443;28;20045;-81
2023/01/27 02:49:19;;;;;;;12.13;5.72;;;;;;;8.14;97.64;102845.66;5007516;28;20054;-80
2023/01/27 02:51:47;;;;;;;9.90;5.90;;;;;;;8.13;98.01;102842.19;5009583;28;20081;-79
2023/01/27 02:54:16;;;;;;;17.38;5.60;;;;;;;8.17;97.71;102846.78;5009866;28;20492;-82
2023/01/27 02:56:44;;;;;;;13.20;6.55;;;;;;;8.19;98.23;102842.63;5011462;28;20105;-79
2023/01/27 02:59:15;;;;;;;11.85;6.00;;;;;;;8.21;96.64;102844.44;5013848;28;20042;-80
2023/01/27 03:01:43;;;;;;;11.07;5.38;;;;;;;8.18;96.91;102839.97;5013842;28;20050;-80
2023/01/27 03:04:12;;;;;;;12.60;6.95;;;;;;;8.17;96.65;102840.72;5013678;28;20042;-80
2023/01/27 03:06:40;;;;;;;12.63;7.05;;;;;;;8.09;96.81;102835.03;5013120;28;20058;-80
2023/01/27 03:09:11;;;;;;;16.67;6.97;;;;;;;8.16;97.55;102842.41;5012670;28;20046;-84
2023/01/27 03:19:57;;;;;;;11.85;6.43;;;;;;;8.18;97.68;102840.84;5010403;28;20622;-83
2023/01/27 03:22:25;;;;;;;16.10;6.60;;;;;;;8.18;98.30;102839.97;5010034;28;20050;-82
2023/01/27 03:24:54;;;;;;;12.40;6.28;;;;;;;8.18;97.20;102839.97;5009005;28;20052;-81
2023/01/27 03:27:23;;;;;;;11.35;5.95;;;;;;;8.16;96.65;102837.25;5001394;28;20057;-81
2023/01/27 03:29:56;;;;;;;14.40;7.00;;;;;;;8.15;96.65;102835.47;5010674;28;20127;-81
2023/01/27 03:32:26;;;;;;;11.63;6.95;;;;;;;8.14;96.61;102838.81;5012091;28;20046;-83
2023/01/27 03:34:56;;;;;;;14.35;7.50;;;;;;;8.13;97.73;102839.63;5007679;28;20116;-80
2023/01/27 03:48:35;;;;;;;22.63;9.52;;;;;;;8.05;97.95;102817.53;5016691;28;20112;-89
2023/01/27 03:51:06;;;;;;;18.25;8.77;;;;;;;8.04;98.96;102820.00;5019166;28;20042;-87
2023/01/27 03:53:35;;;;;;;16.83;8.02;;;;;;;8.03;98.62;102829.41;5018231;28;20054;-82
2023/01/27 03:56:04;;;;;;;20.05;9.30;;;;;;;8.04;99.68;102830.31;5014044;28;20148;-84
2023/01/27 03:58:35;;;;;;;19.17;8.93;;;;;;;8.04;98.99;102823.47;5016537;28;20049;-86
2023/01/27 04:01:08;;;;;;;16.83;7.63;;;;;;;8.04;99.19;102823.47;5016599;28;20403;-84
2023/01/27 04:09:10;;;;;;;24.40;10.48;;;;;;;8.08;99.86;102820.31;5013121;28;20095;-86
2023/01/27 04:11:58;;;;;;;22.73;9.38;;;;;;;8.04;99.85;102815.75;5013618;28;20720;-85
2023/01/27 04:14:29;;;;;;;15.07;7.95;;;;;;;8.02;99.42;102812.16;5005182;28;20054;-81
2023/01/27 04:17:01;;;;;;;20.20;9.00;;;;;;;7.97;99.71;102808.31;5014510;28;20054;-78
2023/01/27 04:19:36;;;;;;;18.50;8.23;;;;;;;7.98;100.00;102812.72;5017885;28;20049;-79
2023/01/27 04:22:05;;;;;;;17.52;7.45;;;;;;;7.98;100.00;102815.28;5015212;28;20072;-79
2023/01/27 04:24:33;;;;;;;18.00;7.72;;;;;;;7.98;100.00;102803.28;5015358;28;20518;-77
2023/01/27 04:27:03;;;;;;;20.73;8.68;;;;;;;7.93;100.00;102790.88;5012266;28;20046;-82
2023/01/27 04:29:34;;;;;;;17.98;8.63;;;;;;;7.88;100.00;102794.78;5013441;28;20053;-81
2023/01/27 04:32:06;;;;;;;20.85;8.27;;;;;;;7.86;100.00;102796.38;5004023;28;20053;-80
2023/01/27 04:34:35;;;;;;;15.15;7.65;;;;;;;7.87;100.00;102798.16;5014201;28;20077;-80
2023/01/27 04:37:04;;;;;;;16.15;7.75;;;;;;;7.86;100.00;102794.69;5008712;28;20045;-79
2023/01/27 04:39:33;;;;;;;18.58;7.03;;;;;;;7.87;100.00;102798.16;4998797;28;20074;-80
2023/01/27 04:42:01;;;;;;;14.98;7.25;;;;;;;7.86;100.00;102789.53;5012536;28;20057;-80
2023/01/27 04:44:30;;;;;;;20.80;7.63;;;;;;;7.83;100.00;102789.28;5011124;28;20061;-81
2023/01/27 04:46:59;;;;;;;14.10;6.90;;;;;;;7.84;100.00;102777.31;5005346;28;20046;-79
2023/01/27 04:49:29;;;;;;;14.88;7.55;;;;;;;7.85;100.00;102781.66;5012985;28;20593;-79
2023/01/27 04:51:57;;;;;;;14.85;7.30;;;;;;;7.86;100.00;102778.31;5011100;28;20049;-79
2023/01/27 04:54:26;;;;;;;19.30;7.15;;;;;;;7.85;100.00;102777.41;5010039;28;20057;-80
2023/01/27 04:56:59;;;;;;;19.33;7.32;;;;;;;7.86;100.00;102762.84;5009882;28;20042;-79
2023/01/27 04:59:28;;;;;;;14.43;7.10;;;;;;;7.85;100.00;102750.75;5010407;28;20590;-79
2023/01/27 05:01:56;;;;;;;14.10;7.38;;;;;;;7.82;100.00;102753.09;5003288;28;20544;-81
2023/01/27 05:04:26;;;;;;;11.77;6.88;;;;;;;7.82;100.00;102753.09;5002781;28;20045;-79
2023/01/27 05:06:56;;;;;;;14.40;6.93;;;;;;;7.81;100.00;102762.53;5011605;28;20519;-79
2023/01/27 05:09:25;;;;;;;15.15;6.55;;;;;;;7.79;100.00;102758.00;5006008;28;20049;-79
2023/01/27 05:11:54;;;;;;;16.15;8.00;;;;;;;7.80;100.00;102758.13;5011719;28;20049;-80
2023/01/27 05:14:24;;;;;;;22.55;6.63;;;;;;;7.81;100.00;102746.16;5002691;28;20057;-76
2023/01/27 05:16:53;;;;;;;21.50;8.30;;;;;;;7.83;100.00;102747.16;5011640;28;20072;-79
2023/01/27 05:19:25;;;;;;;15.50;7.60;;;;;;;7.86;100.00;102739.66;4994470;28;20515;-78
2023/01/27 05:21:53;;;;;;;17.25;7.90;;;;;;;7.86;100.00;102726.78;5012028;28;20089;-82
2023/01/27 05:24:23;;;;;;;15.80;7.05;;;;;;;7.87;100.00;102728.56;5009774;28;20038;-78
2023/01/27 05:26:52;;;;;;;12.25;6.72;;;;;;;7.84;100.00;102726.66;5005131;28;20058;-79
2023/01/27 05:29:20;;;;;;;14.85;7.90;;;;;;;7.84;100.00;102712.88;4998042;28;20077;-78
2023/01/27 05:31:49;;;;;;;12.10;6.30;;;;;;;7.80;100.00;102710.88;5012167;28;20046;-79
2023/01/27 05:34:18;;;;;;;13.70;7.05;;;;;;;7.75;100.00;102711.41;5010875;28;20054;-77
2023/01/27 05:36:46;;;;;;;19.50;7.25;;;;;;;7.71;100.00;102704.25;5004658;28;20050;-78
2023/01/27 05:39:15;;;;;;;17.00;8.02;;;;;;;7.68;100.00;102706.63;4997131;28;20492;-79
2023/01/27 05:41:45;;;;;;;13.95;8.10;;;;;;;7.64;100.00;102704.59;5022571;28;20099;-80
2023/01/27 05:44:14;;;;;;;14.85;6.97;;;;;;;7.64;100.00;102704.59;5011368;28;20062;-79
2023/01/27 05:46:43;;;;;;;17.02;7.55;;;;;;;7.66;100.00;102707.28;5010203;28;20403;-80
2023/01/27 05:49:12;;;;;;;15.95;6.25;;;;;;;7.67;100.00;102701.34;5010915;28;20073;-78
2023/01/27 05:51:41;;;;;;;12.25;5.88;;;;;;;7.63;100.00;102686.44;5009461;28;20124;-78
2023/01/27 05:54:10;;;;;;;13.85;5.88;;;;;;;7.61;100.00;102680.31;5001134;28;20448;-78
2023/01/27 05:56:39;;;;;;;17.08;7.07;;;;;;;7.61;100.00;102686.34;5000081;28;20077;-76
2023/01/27 05:59:12;;;;;;;10.23;5.53;;;;;;;7.60;100.00;102686.22;5010464;28;20053;-81
2023/01/27 06:01:40;;;;;;;12.55;5.45;;;;;;;7.60;100.00;102676.81;4999774;28;20069;-77
2023/01/27 06:04:10;;;;;;;13.43;6.45;;;;;;;7.58;100.00;102670.66;5010352;28;20045;-80
2023/01/27 06:06:39;;;;;;;16.33;7.35;;;;;;;7.53;100.00;102660.00;5006501;28;20061;-78
2023/01/27 06:09:07;;;;;;;15.30;6.63;;;;;;;7.51;100.00;102655.53;5004148;28;20049;-80
2023/01/27 06:11:36;;;;;;;13.25;6.93;;;;;;;7.50;100.00;102658.91;5009156;28;20511;-80
2023/01/27 06:14:05;;;;;;;13.57;6.70;;;;;;;7.50;100.00;102664.06;5008355;28;20406;-84
2023/01/27 06:16:35;;;;;;;15.45;6.88;;;;;;;7.50;100.00;102670.09;5011725;28;20080;-87
2023/01/27 06:19:04;;;;;;;16.33;6.70;;;;;;;7.52;100.00;102684.00;5005071;28;20405;-82
2023/01/27 06:21:33;;;;;;;15.43;6.95;;;;;;;7.52;100.00;102678.84;5009944;28;20052;-85
2023/01/27 06:24:03;;;;;;;13.82;6.90;;;;;;;7.58;100.00;102683.53;5011109;28;20064;-78
2023/01/27 06:26:31;;;;;;;15.77;7.03;;;;;;;7.60;100.00;102681.06;5005433;28;20050;-80
2023/01/27 06:29:00;;;;;;;12.07;6.80;;;;;;;7.60;100.00;102669.06;5008707;28;20046;-85
2023/01/27 06:31:29;;;;;;;13.70;6.82;;;;;;;7.61;100.00;102672.56;5008533;28;20073;-83
2023/01/27 06:33:59;;;;;;;13.93;6.80;;;;;;;7.59;100.00;102672.47;5005590;28;20042;-78
2023/01/27 06:36:28;;;;;;;14.70;7.32;;;;;;;7.62;100.00;102674.34;5009092;28;20412;-75
2023/01/27 06:38:56;;;;;;;15.00;6.63;;;;;;;7.63;100.00;102676.13;4997518;28;20517;-78
2023/01/27 06:41:25;;;;;;;12.20;6.28;;;;;;;7.59;100.00;102659.56;5003943;28;20431;-79
2023/01/27 06:43:54;;;;;;;14.73;6.88;;;;;;;7.53;100.00;102651.38;5001798;28;20489;-77
2023/01/27 06:46:22;;;;;;;13.20;5.80;;;;;;;7.47;100.00;102650.97;5002053;28;20403;-82
2023/01/27 06:48:51;;;;;;;15.30;6.13;;;;;;;7.44;100.00;102641.31;5003718;28;20704;-80
2023/01/27 06:51:21;;;;;;;13.43;6.25;;;;;;;7.45;100.00;102639.66;5009054;28;20482;-80
2023/01/27 06:53:50;;;;;;;13.55;6.68;;;;;;;7.47;100.00;102650.97;5003059;28;20050;-82
2023/01/27 06:56:18;;;;;;;18.73;6.97;;;;;;;7.50;100.00;102654.66;5008693;28;20041;-80
2023/01/27 06:58:47;;;;;;;12.98;6.22;;;;;;;7.52;100.00;102658.22;5009524;28;20484;-78
2023/01/27 07:01:16;;;;;;;13.35;5.50;;;;;;;7.56;100.00;102656.78;5008661;28;20056;-79
2023/01/27 07:03:44;;;;;;;13.80;6.40;;;;;;;7.57;100.00;102650.84;5005423;28;20050;-78
2023/01/27 07:06:13;;;;;;;12.25;5.80;;;;;;;7.57;100.00;102652.53;5008295;28;20057;-78
2023/01/27 07:08:45;;;;;;;12.70;6.28;;;;;;;7.58;100.00;102644.00;5008647;28;20057;-80
2023/01/27 07:11:14;;;;;;;13.82;5.88;;;;;;;7.57;100.00;102653.41;5009050;28;20441;-79
2023/01/27 07:13:43;;;;;;;12.25;5.32;;;;;;;7.60;100.00;102645.88;5007249;28;20084;-79
2023/01/27 07:16:11;;;;;;;12.45;6.45;;;;;;;7.60;100.00;102630.44;5004714;28;20408;-78
2023/01/27 07:18:40;;;;;;;11.40;5.20;;;;;;;7.60;100.00;102632.13;4988125;28;20053;-79
2023/01/27 07:21:09;;;;;;;12.50;6.05;;;;;;;7.62;100.00;102626.28;4990432;28;20046;-77
2023/01/27 07:23:37;;;;;;;12.57;6.50;;;;;;;7.61;100.00;102627.09;4992546;28;20061;-76
2023/01/27 07:26:08;;;;;;;13.15;6.40;;;;;;;7.63;100.00;102629.75;4990546;28;20038;-78
2023/01/27 07:28:36;;;;;;;13.43;5.97;;;;;;;7.62;100.00;102608.25;4988710;28;20058;-77
2023/01/27 07:31:05;;;;;;;12.32;5.00;;;;;;;7.63;100.00;102614.28;4982227;28;20594;-76
2023/01/27 07:33:34;;;;;;;11.35;4.78;;;;;;;7.62;100.00;102622.81;4991969;28;20050;-78
2023/01/27 07:36:02;;;;;;;9.77;4.43;;;;;;;7.55;100.00;102613.75;4986978;28;20061;-79
2023/01/27 07:38:31;;;;;;;9.60;4.88;;;;;;;7.51;100.00;102604.00;4988938;28;20058;-80
2023/01/27 07:41:04;;;;;;;8.98;4.72;;;;;;;7.48;100.00;102606.38;4988462;28;20058;-80
2023/01/27 07:43:34;;;;;;;8.02;4.05;;;;;;;7.47;100.00;102602.03;4998403;28;20596;-75
2023/01/27 07:46:03;;;;;;;10.52;4.65;;;;;;;7.41;100.00;102584.44;4992856;28;20532;-76
2023/01/27 07:48:32;;;;;;;8.10;4.18;;;;;;;7.40;100.00;102586.91;4988632;28;20328;-78
2023/01/27 07:51:00;;;;;;;16.08;5.05;;;;;;;7.37;100.00;102586.69;4997002;28;20604;-76
2023/01/27 07:53:29;;;;;;;11.60;5.18;;;;;;;7.33;100.00;102565.00;4991810;28;20042;-76
2023/01/27 07:56:00;;;;;;;7.75;4.28;;;;;;;7.21;100.00;102546.97;4987568;28;20050;-76
2023/01/27 07:58:29;;;;;;;10.73;4.38;;;;;;;7.15;100.00;102543.97;4997207;28;20049;-77
2023/01/27 08:01:09;;;;;;;11.20;4.63;;;;;;;7.18;100.00;102549.31;4989111;28;20492;-76
2023/01/27 08:03:37;;;;;;;14.75;4.85;;;;;;;7.21;100.00;102533.19;4991411;28;20046;-75
2023/01/27 08:06:07;;;;;;;11.48;5.20;;;;;;;7.17;100.00;102526.94;4998706;28;20038;-77
2023/01/27 08:08:36;;;;;;;12.88;5.15;;;;;;;7.16;100.00;102537.13;5003635;28;20278;-76
2023/01/27 08:11:07;;;;;;;15.75;5.95;;;;;;;7.13;100.00;102536.13;4987959;28;20535;-77
2023/01/27 08:13:36;;;;;;;10.55;4.60;;;;;;;7.13;100.00;102538.69;4999179;28;20462;-78
2023/01/27 08:16:14;;;;;;;13.40;5.53;;;;;;;7.13;100.00;102538.69;4999513;28;20054;-77
2023/01/27 08:18:49;;;;;;;13.77;5.43;;;;;;;7.13;100.00;102527.50;5012993;28;20061;-76
2023/01/27 08:21:17;;;;;;;11.65;5.13;;;;;;;7.08;100.00;102511.75;5011082;28;20054;-76
2023/01/27 08:23:46;;;;;;;13.52;5.82;;;;;;;7.13;100.00;102507.81;5014384;28;20562;-78
2023/01/27 08:26:14;;;;;;;11.98;5.50;;;;;;;7.12;100.00;102502.53;5011160;28;20042;-77
2023/01/27 08:28:43;;;;;;;10.68;4.63;;;;;;;7.06;100.00;102495.28;5011867;28;20057;-78
2023/01/27 08:31:16;;;;;;;11.45;5.07;;;;;;;7.06;100.00;102489.25;5010563;28;20485;-77
2023/01/27 08:33:46;;;;;;;10.75;4.60;;;;;;;7.07;100.00;102486.75;5011457;28;20050;-78
2023/01/27 08:36:16;;;;;;;12.70;5.28;;;;;;;7.09;100.00;102497.19;5014140;28;20049;-77
2023/01/27 08:38:48;;;;;;;13.65;5.85;;;;;;;7.03;100.00;102489.00;5009665;28;20050;-80
2023/01/27 08:41:18;;;;;;;15.68;6.03;;;;;;;7.02;100.00;102484.66;5007676;28;20109;-78
2023/01/27 08:43:47;;;;;;;11.35;5.13;;;;;;;7.02;100.00;102492.38;5002454;28;20096;-79
2023/01/27 08:46:18;;;;;;;15.60;6.38;;;;;;;7.02;100.00;102498.41;5007698;28;20108;-78
2023/01/27 08:48:46;;;;;;;12.73;5.88;;;;;;;7.01;100.00;102476.06;5009955;28;20050;-75
2023/01/27 08:51:15;;;;;;;13.35;5.18;;;;;;;6.92;100.00;102452.22;5010320;28;20045;-77
2023/01/27 08:53:44;;;;;;;17.08;6.70;;;;;;;6.90;100.00;102459.84;5009783;28;20054;-79
2023/01/27 08:56:16;;;;;;;15.73;5.78;;;;;;;6.87;100.00;102466.41;5009200;28;20062;-78
2023/01/27 08:58:47;;;;;;;20.98;7.68;;;;;;;6.85;100.00;102466.34;5003244;28;20050;-78
2023/01/27 09:01:18;;;;;;;19.13;6.72;;;;;;;6.86;100.00;102449.22;4999708;28;20042;-78
2023/01/27 09:03:47;;;;;;;16.52;6.68;;;;;;;6.85;100.00;102449.97;5010571;28;20049;-77
2023/01/27 09:06:16;;;;;;;14.73;5.72;;;;;;;6.81;100.00;102454.03;5008801;28;20041;-79
2023/01/27 09:09:07;;;;;;;20.88;8.35;;;;;;;6.85;100.00;102471.47;5010055;28;20108;-78
2023/01/27 09:11:34;;;;;;;20.00;7.82;;;;;;;6.86;100.00;102475.81;5007599;28;20053;-78
2023/01/27 09:14:03;;;;;;;20.38;9.35;;;;;;;6.85;100.00;102466.34;5009874;28;20057;-79
2023/01/27 09:16:33;;;;;;;23.00;8.65;;;;;;;6.88;100.00;102471.69;5007718;28;20073;-78
2023/01/27 09:19:02;;;;;;;20.65;7.88;;;;;;;6.88;100.00;102460.50;5009268;28;20538;-77
2023/01/27 09:21:31;;;;;;;21.75;9.20;;;;;;;6.87;100.00;102462.19;5011985;28;20077;-78
2023/01/27 09:24:00;;;;;;;20.20;8.48;;;;;;;6.87;100.00;102454.47;5000447;28;20060;-78
2023/01/27 09:26:28;;;;;;;22.77;8.70;;;;;;;6.84;100.00;102451.66;5003027;28;20066;-77
2023/01/27 09:28:57;;;;;;;23.20;7.75;;;;;;;6.80;100.00;102448.75;4993215;28;20476;-77
2023/01/27 09:31:26;;;;;;;28.88;10.10;;;;;;;6.74;100.00;102441.50;5008698;28;20450;-78
2023/01/27 09:33:56;;;;;;;22.30;9.20;;;;;;;6.72;100.00;102432.78;5010573;28;20507;-79
2023/01/27 09:36:25;;;;;;;27.45;9.38;;;;;;;6.74;100.00;102438.94;4999838;28;20510;-78
2023/01/27 09:38:59;;;;;;;25.58;9.65;;;;;;;6.77;100.00;102428.84;4995325;28;20053;-78
2023/01/27 09:41:52;;;;;;;26.00;10.13;;;;;;;6.77;100.00;102423.72;5008432;28;20502;-77
2023/01/27 09:44:45;;;;;;;22.95;9.77;;;;;;;6.78;100.00;102424.59;5008573;28;20060;-79
2023/01/27 09:47:35;;;;;;;21.77;9.77;;;;;;;6.79;100.00;102421.25;5003403;28;20399;-78
2023/01/27 09:50:26;;;;;;;23.70;8.77;;;;;;;6.74;100.00;102415.78;5007884;28;20052;-78
2023/01/27 09:53:13;;;;;;;29.15;9.60;;;;;;;6.75;100.00;102419.25;5009383;28;20564;-78
2023/01/27 09:55:53;;;;;;;24.30;9.93;;;;;;;6.76;100.00;102429.66;5008959;28;20412;-79
2023/01/27 09:58:33;;;;;;;21.77;9.18;;;;;;;6.77;100.00;102423.72;4999731;28;20408;-81
2023/01/27 10:01:17;;;;;;;26.30;11.18;;;;;;;6.75;100.00;102420.13;5008790;28;20057;-78
2023/01/27 10:04:13;;;;;;;28.38;10.73;;;;;;;6.76;100.00;102431.31;5002401;28;20125;-76
2023/01/27 10:07:01;;;;;;;23.83;10.25;;;;;;;6.73;100.00;102421.69;5004024;28;21069;-79
2023/01/27 10:09:52;;;;;;;23.88;10.13;;;;;;;6.71;100.00;102420.69;5009797;28;20079;-75
2023/01/27 10:12:47;;;;;;;24.48;8.65;;;;;;;6.66;100.00;102422.03;5005903;28;20109;-77
2023/01/27 10:15:31;;;;;;;23.05;9.32;;;;;;;6.67;100.00;102409.31;5008294;28;20042;-79
2023/01/27 10:18:12;;;;;;;24.73;9.68;;;;;;;6.73;100.00;102401.13;5003456;28;20488;-78
2023/01/27 10:20:48;;;;;;;22.52;9.68;;;;;;;6.74;100.00;102404.63;5011456;28;20045;-78
2023/01/27 10:23:34;;;;;;;33.35;11.15;;;;;;;6.74;100.00;102396.88;5008516;28;20065;-77
2023/01/27 10:26:13;;;;;;;18.73;8.85;;;;;;;6.75;100.00;102396.97;4998480;28;20525;-77
2023/01/27 10:28:49;;;;;;;23.30;9.95;;;;;;;6.76;100.00;102391.06;5006223;28;20111;-77
2023/01/27 10:31:25;;;;;;;26.23;9.65;;;;;;;6.75;100.00;102391.84;4999800;28;20046;-77
2023/01/27 10:34:04;;;;;;;23.13;10.05;;;;;;;6.74;100.00;102377.19;5005428;28;20124;-80
2023/01/27 10:36:46;;;;;;;27.55;10.05;;;;;;;6.73;100.00;102370.25;5000877;28;20490;-78
2023/01/27 10:39:26;;;;;;;27.15;10.05;;;;;;;6.71;100.00;102361.53;4996948;28;20046;-76
2023/01/27 10:42:02;;;;;;;24.58;10.13;;;;;;;6.64;100.00;102352.50;5007664;28;20117;-77
2023/01/27 10:44:54;;;;;;;24.42;9.57;;;;;;;6.63;100.00;102334.38;4999797;28;20554;-77
2023/01/27 10:47:35;;;;;;;23.23;9.77;;;;;;;6.64;100.00;102336.16;5005667;28;20057;-79
2023/01/27 10:50:10;;;;;;;21.35;9.00;;;;;;;6.65;100.00;102335.38;5009051;28;20054;-79
2023/01/27 10:52:44;;;;;;;23.17;9.63;;;;;;;6.67;100.00;102334.72;5008996;28;20050;-78
2023/01/27 10:55:24;;;;;;;20.52;8.57;;;;;;;6.70;100.00;102323.75;5001369;28;20136;-78
2023/01/27 10:57:59;;;;;;;21.80;8.95;;;;;;;6.71;100.00;102316.13;5003089;28;20503;-79
2023/01/27 11:00:34;;;;;;;19.58;8.55;;;;;;;6.75;100.00;102326.63;4995589;28;20047;-79
2023/01/27 11:03:10;;;;;;;20.50;7.97;;;;;;;6.76;100.00;102329.31;5008105;28;20392;-79
2023/01/27 11:05:42;;;;;;;15.30;7.25;;;;;;;6.74;100.00;102328.31;5007691;28;20767;-78
2023/01/27 11:08:18;;;;;;;17.80;6.53;;;;;;;6.69;100.00;102327.13;4999828;28;20045;-77
2023/01/27 11:13:38;;;;;;;15.48;6.28;;;;;;;6.63;100.00;102306.09;5009362;28;20518;-77
2023/01/27 11:16:15;;;;;;;18.10;5.53;;;;;;;6.65;100.00;102315.69;5011498;28;20692;-77
2023/01/27 11:18:45;;;;;;;14.15;6.13;;;;;;;6.64;100.00;102310.44;5006080;28;20050;-78
2023/01/27 11:21:19;;;;;;;13.38;5.95;;;;;;;6.58;100.00;102292.91;5015777;28;20053;-77
2023/01/27 11:23:54;;;;;;;13.98;5.25;;;;;;;6.55;100.00;102271.22;5002312;28;20484;-78
2023/01/27 11:26:31;;;;;;;18.08;6.47;;;;;;;6.52;100.00;102245.28;4999325;28;20046;-77
2023/01/27 11:29:14;;;;;;;14.60;5.40;;;;;;;6.48;100.00;102265.66;5017936;28;20205;-78
2023/01/27 11:31:52;;;;;;;13.30;5.72;;;;;;;6.50;100.00;102268.31;5003534;28;20057;-78
2023/01/27 11:34:27;;;;;;;11.50;4.95;;;;;;;6.48;100.00;102269.88;5002499;28;20404;-78
2023/01/27 11:36:55;;;;;;;10.27;5.13;;;;;;;6.48;100.00;102281.09;5013281;28;20042;-77
2023/01/27 11:39:25;;;;;;;13.05;5.10;;;;;;;6.53;100.00;102275.34;4994190;28;20053;-77
2023/01/27 11:41:56;;;;;;;14.77;4.50;;;;;;;6.50;100.00;102256.38;5006165;28;20053;-76
2023/01/27 11:44:28;;;;;;;8.40;3.75;;;;;;;6.45;100.00;102234.56;5012771;28;20161;-76
2023/01/27 11:46:57;;;;;;;13.85;5.22;;;;;;;6.46;100.00;102241.53;5002235;28;20049;-78
2023/01/27 11:49:30;;;;;;;10.13;4.30;;;;;;;6.45;100.00;102229.44;5012289;28;20049;-75
2023/01/27 11:52:04;;;;;;;11.45;5.10;;;;;;;6.36;100.00;102221.06;5003160;28;20053;-79
2023/01/27 11:54:37;;;;;;;12.52;4.80;;;;;;;6.31;100.00;102208.69;5012115;28;20393;-76
2023/01/27 11:57:17;;;;;;;13.07;5.88;;;;;;;6.28;100.00;102204.25;5011151;28;20137;-77
2023/01/27 11:59:48;;;;;;;14.70;5.82;;;;;;;6.22;100.00;102212.41;5002093;28;20064;-77
2023/01/27 12:02:28;;;;;;;13.82;5.70;;;;;;;6.12;100.00;102194.56;5011574;28;20102;-77
2023/01/27 12:05:02;;;;;;;15.60;6.00;;;;;;;6.06;100.00;102191.53;5012572;28;20100;-77
2023/01/27 12:07:43;;;;;;;14.05;5.80;;;;;;;5.93;100.00;102161.47;5009692;28;20980;-79
2023/01/27 12:10:33;;;;;;;15.13;6.28;;;;;;;5.95;100.00;102166.78;5006612;28;20064;-78
2023/01/27 12:13:10;;;;;;;18.13;6.30;;;;;;;5.91;100.00;102172.44;5006867;28;20412;-78
2023/01/27 12:15:48;;;;;;;13.70;4.88;;;;;;;5.88;100.00;102156.00;5011308;28;20632;-77